Main page
METAR-TAF:

METAR-TAF

Airports :

Nakhon Ratchasima Airport

Nakhon Ratchasima, Thailand

latitude: 14-56-58N, longitude: 102-18-45E, elevation: 233 m

Current weather observation

The report was made 21 minutes ago, at 00:00 UTC
Wind 2 kt from variable directions
Temperature 12°C
Humidity 94%
Pressure 1016 hPa
Visibility: 4000 m
mist

METAR: VTUQ 120000Z VRB02KT 4000 BR NSC 12/11 Q1016 BECMG FM0100 5000 BR

Time: 07:21 (00:21 UTC)

Forecast

The report was made 1 hour and 21 minutes ago, at 23:00 UTC
Forecast valid from 12 at 00 UTC to 12 at 24 UTC
Wind 5 kt from the North/Northeast
Visibility: 5000 m
Few clouds at a height of 3500 ft
mist
Becoming
from 12 at 01 UTC to 12 at 03 UTC
Visibility: 9000 m
Becoming
from 12 at 21 UTC to 12 at 23 UTC
Visibility: 5000 m
mist

TAF: VTUQ 112300Z 1200/1224 03005KT 5000 BR FEW035 BECMG 1201/1203 9000 NSW BECMG 1221/1223 5000 BR

Weather observations and forecasts of more than 4000 airports (METAR and TAF reports).

The available stations are represented by yellow and red dots on the map.

Hover mouse over dot to see the name of the station.

Then click to see weather observations and forecasts.

To change the map : click on the green buttons with a black cross to zoom in, on the green button with a dash to zoom out, or on the green arrows for adjacent maps.


METAR-TAF: